createdAt,value
2019-04-04T00:00:58.578Z,81.90
2019-04-04T00:05:03.135Z,81.90
2019-04-04T00:09:10.685Z,81.70
2019-04-04T00:13:15.371Z,81.70
2019-04-04T00:17:23.010Z,81.80
2019-04-04T00:21:26.189Z,82.00
2019-04-04T00:25:30.769Z,82.00
2019-04-04T00:29:35.334Z,82.20
2019-04-04T00:33:40.036Z,82.20
2019-04-04T00:37:44.616Z,82.20
2019-04-04T00:41:49.204Z,82.30
2019-04-04T00:45:53.784Z,82.40
2019-04-04T00:49:58.366Z,82.10
2019-04-04T00:54:02.954Z,82.10
2019-04-04T00:58:07.523Z,82.10
2019-04-04T01:02:12.145Z,82.10
2019-04-04T01:06:16.704Z,82.20
2019-04-04T01:10:21.329Z,82.20
2019-04-04T01:14:28.896Z,82.20
2019-04-04T01:18:32.191Z,82.30
2019-04-04T01:22:36.778Z,82.30
2019-04-04T01:26:41.347Z,82.20
2019-04-04T01:30:45.965Z,82.00
2019-04-04T01:34:52.059Z,81.90
2019-04-04T01:38:58.150Z,81.80
2019-04-04T01:43:03.008Z,81.50
2019-04-04T01:47:07.558Z,81.40
2019-04-04T01:51:12.145Z,81.40
2019-04-04T01:55:16.740Z,81.40
2019-04-04T01:59:21.335Z,81.40
2019-04-04T02:03:25.972Z,81.30
2019-04-04T02:07:30.528Z,81.10
2019-04-04T02:11:37.304Z,81.10
2019-04-04T02:15:42.812Z,81.20
2019-04-04T02:19:47.628Z,81.10
2019-04-04T02:23:52.235Z,81.10
2019-04-04T02:27:57.336Z,81.00
2019-04-04T02:32:04.358Z,80.90
2019-04-04T02:36:08.941Z,81.20
2019-04-04T02:40:14.842Z,80.80
2019-04-04T02:44:19.432Z,81.00
2019-04-04T02:48:24.852Z,80.80
2019-04-04T02:52:29.580Z,80.20
2019-04-04T02:56:35.974Z,79.90
2019-04-04T03:00:40.425Z,80.00
2019-04-04T03:04:46.802Z,80.20
2019-04-04T03:08:51.271Z,80.20
2019-04-04T03:15:57.953Z,79.10
2019-04-04T03:20:02.569Z,81.20
2019-04-04T03:24:07.343Z,81.90
2019-04-04T03:28:12.004Z,81.80
2019-04-04T03:32:17.348Z,81.60
2019-04-04T03:36:22.221Z,81.50
2019-04-04T03:40:26.879Z,82.50
2019-04-04T03:44:31.766Z,81.50
2019-04-04T03:48:36.329Z,81.60
2019-04-04T03:52:44.346Z,81.90
2019-04-04T03:56:47.201Z,81.90
2019-04-04T04:00:51.777Z,81.80
2019-04-04T04:05:00.352Z,82.00
2019-04-04T04:09:02.679Z,82.10
2019-04-04T04:13:08.105Z,82.10
2019-04-04T04:17:12.760Z,82.10
2019-04-04T04:21:17.371Z,82.20
2019-04-04T04:25:21.954Z,82.10
2019-04-04T04:29:29.526Z,83.20
2019-04-04T04:33:32.749Z,82.60
2019-04-04T04:37:37.348Z,82.30
2019-04-04T04:41:41.925Z,81.90
2019-04-04T04:45:46.527Z,81.70
2019-04-04T04:49:51.089Z,81.70
2019-04-04T04:53:55.675Z,81.70
2019-04-04T04:58:00.301Z,81.80
2019-04-04T05:02:04.999Z,82.00
2019-04-04T05:06:09.598Z,82.20
2019-04-04T05:10:15.660Z,82.30
2019-04-04T05:14:20.360Z,82.30
2019-04-04T05:18:24.945Z,82.40
2019-04-04T05:22:29.864Z,82.30
2019-04-04T05:26:35.106Z,82.40
2019-04-04T05:30:40.120Z,82.60
2019-04-04T05:34:44.667Z,82.50
2019-04-04T05:38:49.295Z,82.60
2019-04-04T05:42:53.908Z,83.10
2019-04-04T05:46:58.526Z,82.80
2019-04-04T05:51:03.068Z,82.80
2019-04-04T05:55:09.961Z,82.90
2019-04-04T05:59:14.178Z,83.00
2019-04-04T06:03:18.852Z,82.90
2019-04-04T06:07:23.485Z,83.20
2019-04-04T06:11:28.076Z,82.80
2019-04-04T06:15:32.924Z,82.90
2019-04-04T06:19:37.558Z,82.70
2019-04-04T06:23:42.152Z,82.90
2019-04-04T06:27:46.741Z,83.00
2019-04-04T06:31:51.302Z,83.30
2019-04-04T06:35:55.883Z,83.40
2019-04-04T06:40:00.491Z,83.50
2019-04-04T06:44:05.346Z,83.70
2019-04-04T06:48:09.921Z,83.80
2019-04-04T06:52:18.133Z,83.80
2019-04-04T06:56:20.690Z,84.00
2019-04-04T07:00:25.280Z,84.10
2019-04-04T07:04:31.886Z,84.30
2019-04-04T07:08:36.101Z,84.00
2019-04-04T07:12:40.719Z,84.20
2019-04-04T07:16:45.315Z,84.20
2019-04-04T07:20:49.872Z,84.70
2019-04-04T07:24:54.464Z,84.30
2019-04-04T07:28:59.104Z,83.90
2019-04-04T07:33:03.691Z,83.90
2019-04-04T07:37:08.264Z,83.90
2019-04-04T07:41:14.783Z,84.00
2019-04-04T07:45:19.068Z,83.90
2019-04-04T07:49:23.952Z,84.00
2019-04-04T07:53:28.604Z,83.90
2019-04-04T07:57:36.007Z,83.90
2019-04-04T08:01:50.664Z,83.90
2019-04-04T08:05:46.752Z,83.90
2019-04-04T08:09:51.343Z,83.90
2019-04-04T08:13:56.001Z,84.10
2019-04-04T08:18:00.573Z,84.10
2019-04-04T08:22:05.227Z,83.70
2019-04-04T08:26:10.203Z,83.60
2019-04-04T08:30:15.640Z,83.70
2019-04-04T08:34:20.185Z,83.70
2019-04-04T08:38:24.733Z,83.40
2019-04-04T08:42:29.292Z,84.10
2019-04-04T08:46:33.885Z,83.50
2019-04-04T08:50:38.460Z,83.70
2019-04-04T08:54:43.017Z,83.60
2019-04-04T08:58:47.528Z,84.10
2019-04-04T09:02:52.152Z,83.40
2019-04-04T09:06:56.748Z,83.10
2019-04-04T09:11:01.307Z,83.10
2019-04-04T09:15:06.923Z,83.20
2019-04-04T09:19:11.467Z,83.20
2019-04-04T09:23:16.031Z,82.90
2019-04-04T09:27:20.666Z,82.70
2019-04-04T09:31:25.232Z,82.60
2019-04-04T09:35:29.800Z,82.40
2019-04-04T09:39:34.352Z,82.40
2019-04-04T09:43:38.933Z,82.70
2019-04-04T09:47:43.569Z,82.90
2019-04-04T09:51:48.171Z,82.70
2019-04-04T09:55:52.772Z,82.00
2019-04-04T09:59:57.308Z,82.00
2019-04-04T10:04:01.893Z,81.70
2019-04-04T10:08:06.773Z,81.60
2019-04-04T10:12:11.393Z,81.70
2019-04-04T10:16:16.012Z,82.00
2019-04-04T10:20:20.546Z,81.70
2019-04-04T10:24:25.126Z,81.70
2019-04-04T10:28:29.716Z,82.20
2019-04-04T10:32:34.301Z,81.90
2019-04-04T10:36:38.875Z,81.90
2019-04-04T10:40:43.416Z,81.90
2019-04-04T10:44:48.037Z,81.70
2019-04-04T10:48:52.609Z,81.60
2019-04-04T10:52:57.188Z,81.30
2019-04-04T10:57:01.792Z,81.40
2019-04-04T11:01:06.348Z,81.20
2019-04-04T11:05:11.075Z,81.40
2019-04-04T11:09:15.639Z,81.30
2019-04-04T11:13:32.525Z,81.20
2019-04-04T11:17:26.476Z,81.60
2019-04-04T11:21:31.078Z,81.00
2019-04-04T11:25:35.659Z,80.90
2019-04-04T11:29:40.272Z,81.20
2019-04-04T11:33:44.906Z,80.80
2019-04-04T11:37:49.440Z,80.90
2019-04-04T11:41:54.017Z,80.80
2019-04-04T11:45:58.599Z,80.90
2019-04-04T11:50:03.194Z,80.90
2019-04-04T11:54:07.752Z,80.80
2019-04-04T11:58:12.341Z,80.70
2019-04-04T12:02:21.403Z,80.50
2019-04-04T12:06:26.012Z,80.40
2019-04-04T12:10:30.591Z,80.30
2019-04-04T12:14:35.304Z,79.50
2019-04-04T12:18:39.843Z,80.50
2019-04-04T12:22:44.432Z,80.70
2019-04-04T12:26:49.017Z,80.80
2019-04-04T12:30:53.676Z,80.60
2019-04-04T12:34:58.232Z,80.90
2019-04-04T12:39:02.792Z,80.70
2019-04-04T12:43:07.364Z,80.80
2019-04-04T12:47:11.932Z,80.80
2019-04-04T12:51:16.524Z,80.70
2019-04-04T12:55:21.052Z,80.80
2019-04-04T12:59:25.645Z,80.80
2019-04-04T13:03:30.260Z,80.60
2019-04-04T13:07:34.833Z,80.80
2019-04-04T13:11:39.416Z,81.00
2019-04-04T13:15:44.095Z,80.60
2019-04-04T13:19:48.661Z,81.40
2019-04-04T13:23:53.239Z,80.90
2019-04-04T13:27:57.813Z,81.00
2019-04-04T13:32:02.397Z,80.80
2019-04-04T13:36:07.880Z,81.80
2019-04-04T13:40:13.933Z,80.80
2019-04-04T13:44:18.518Z,80.90
2019-04-04T13:48:23.080Z,80.90
2019-04-04T13:52:27.676Z,80.70
2019-04-04T13:56:32.196Z,80.60
2019-04-04T14:00:36.773Z,80.70
2019-04-04T14:04:41.365Z,80.30
2019-04-04T14:08:45.995Z,80.50
2019-04-04T14:12:50.592Z,80.60
2019-04-04T14:16:55.164Z,80.60
2019-04-04T14:21:03.729Z,80.50
2019-04-04T14:25:06.228Z,80.60
2019-04-04T14:29:10.813Z,80.70
2019-04-04T14:33:15.844Z,80.80
2019-04-04T14:37:23.776Z,80.80
2019-04-04T14:41:28.684Z,80.80
2019-04-04T14:45:39.960Z,80.60
2019-04-04T14:49:45.807Z,80.60
2019-04-04T14:53:50.564Z,80.90
2019-04-04T14:57:55.172Z,81.40
2019-04-04T15:01:59.704Z,81.30
2019-04-04T15:06:04.289Z,81.50
2019-04-04T15:10:09.071Z,81.10
2019-04-04T15:14:13.661Z,81.20
2019-04-04T15:18:18.279Z,81.20
2019-04-04T15:22:22.816Z,81.10
2019-04-04T15:26:26.513Z,81.20
2019-04-04T15:30:31.096Z,81.40
2019-04-04T15:34:35.664Z,81.20
2019-04-04T15:38:40.264Z,81.00
2019-04-04T15:42:44.896Z,81.10
2019-04-04T15:46:49.475Z,81.40
2019-04-04T15:50:54.049Z,82.30
2019-04-04T15:54:58.611Z,81.30
2019-04-04T15:59:03.175Z,81.90
2019-04-04T16:03:07.712Z,82.00
2019-04-04T16:07:13.098Z,81.30
2019-04-04T16:11:17.704Z,81.50
2019-04-04T16:15:22.306Z,82.10
2019-04-04T16:19:26.880Z,83.10
2019-04-04T16:23:31.440Z,83.50
2019-04-04T16:27:36.015Z,82.50
2019-04-04T16:31:43.486Z,83.10
2019-04-04T16:35:48.259Z,82.70
2019-04-04T16:39:52.997Z,83.70
2019-04-04T16:43:57.549Z,83.00
2019-04-04T16:48:02.132Z,82.70
2019-04-04T16:52:07.314Z,83.30
2019-04-04T16:56:12.005Z,83.50
2019-04-04T17:00:16.980Z,83.00
2019-04-04T17:04:21.549Z,82.90
2019-04-04T17:08:26.100Z,83.30
2019-04-04T17:12:30.722Z,83.30
2019-04-04T17:16:35.296Z,83.60
2019-04-04T17:20:39.889Z,83.90
2019-04-04T17:24:44.493Z,83.70
2019-04-04T17:28:49.121Z,83.40
2019-04-04T17:32:53.701Z,83.70
2019-04-04T17:37:01.453Z,84.10
2019-04-04T17:41:06.142Z,84.00
2019-04-04T17:45:11.483Z,84.00
2019-04-04T17:49:16.276Z,84.00
2019-04-04T17:53:21.377Z,84.30
2019-04-04T17:57:26.025Z,84.30
2019-04-04T18:01:30.644Z,84.40
2019-04-04T18:05:35.232Z,84.60
2019-04-04T18:09:39.780Z,84.50
2019-04-04T18:13:44.460Z,84.20
2019-04-04T18:17:49.108Z,84.20
2019-04-04T18:21:53.689Z,84.30
2019-04-04T18:25:58.255Z,84.10
2019-04-04T18:30:02.817Z,84.40
2019-04-04T18:34:08.794Z,85.20
2019-04-04T18:38:13.705Z,85.00
2019-04-04T18:42:18.437Z,85.60
2019-04-04T18:46:23.298Z,85.00
2019-04-04T18:50:28.034Z,86.60
2019-04-04T18:54:32.684Z,85.80
2019-04-04T18:58:37.389Z,86.40
2019-04-04T19:02:42.350Z,86.90
2019-04-04T19:06:47.172Z,85.80
2019-04-04T19:10:51.840Z,85.60
2019-04-04T19:14:56.480Z,85.30
2019-04-04T19:19:01.340Z,85.60
2019-04-04T19:23:05.992Z,85.30
2019-04-04T19:27:10.723Z,85.70
2019-04-04T19:31:15.379Z,84.90
2019-04-04T19:35:20.689Z,85.10
2019-04-04T19:39:25.271Z,85.70
2019-04-04T19:43:29.832Z,86.30
2019-04-04T19:47:34.426Z,85.30
2019-04-04T19:51:39.015Z,85.40
2019-04-04T19:55:43.593Z,85.50
2019-04-04T19:59:48.184Z,85.50
2019-04-04T20:03:52.830Z,85.10
2019-04-04T20:07:57.425Z,85.40
2019-04-04T20:12:01.999Z,85.30
2019-04-04T20:16:06.584Z,85.30
2019-04-04T20:20:11.380Z,86.00
2019-04-04T20:24:15.910Z,86.10
2019-04-04T20:28:20.475Z,85.90
2019-04-04T20:32:25.188Z,85.80
2019-04-04T20:36:29.758Z,86.00
2019-04-04T20:40:34.331Z,85.80
2019-04-04T20:44:38.869Z,85.80
2019-04-04T20:48:43.448Z,85.90
2019-04-04T20:52:48.016Z,85.50
2019-04-04T20:56:52.597Z,85.90
2019-04-04T21:00:57.145Z,86.90
2019-04-04T21:05:01.724Z,87.20
2019-04-04T21:09:08.202Z,86.50
2019-04-04T21:13:12.917Z,86.30
2019-04-04T21:17:17.501Z,87.10
2019-04-04T21:21:22.050Z,85.90
2019-04-04T21:25:26.644Z,86.60
2019-04-04T21:29:31.222Z,87.10
2019-04-04T21:33:35.857Z,86.50
2019-04-04T21:37:40.478Z,86.60
2019-04-04T21:41:44.992Z,86.20
2019-04-04T21:45:49.560Z,87.20
2019-04-04T21:49:54.159Z,86.40
2019-04-04T21:53:58.734Z,86.50
2019-04-04T21:58:03.328Z,86.90
2019-04-04T22:02:07.859Z,86.30
2019-04-04T22:06:12.445Z,86.80
2019-04-04T22:10:17.040Z,87.90
2019-04-04T22:14:22.417Z,86.60
2019-04-04T22:18:27.073Z,87.10
2019-04-04T22:22:31.609Z,87.10
2019-04-04T22:26:36.195Z,87.10
2019-04-04T22:30:40.769Z,86.60
2019-04-04T22:34:45.344Z,87.20
2019-04-04T22:38:49.916Z,86.60
2019-04-04T22:42:54.460Z,86.40
2019-04-04T22:46:59.038Z,87.40
2019-04-04T22:51:03.625Z,87.60
2019-04-04T22:55:08.407Z,87.30
2019-04-04T22:59:13.001Z,87.80
2019-04-04T23:03:17.832Z,87.90
2019-04-04T23:07:22.433Z,87.40
2019-04-04T23:11:27.003Z,87.20
2019-04-04T23:15:31.677Z,87.60
2019-04-04T23:19:36.197Z,87.60
2019-04-04T23:23:40.763Z,87.40
2019-04-04T23:27:45.352Z,87.30
2019-04-04T23:31:49.916Z,88.00
2019-04-04T23:35:54.497Z,87.10
2019-04-04T23:39:59.100Z,87.00
2019-04-04T23:44:03.646Z,87.20
2019-04-04T23:48:08.218Z,87.00
2019-04-04T23:52:12.779Z,87.30
2019-04-04T23:56:17.390Z,87.00
